Time;durP1;ratioP1;P1;durP2;ratioP2;P2;SDS_P1;SDS_P2;PMS_P1;PMS_P2;Temp;Humidity;BMP_temperature;BMP_pressure;BME280_temperature;BME280_humidity;BME280_pressure;Samples;Min_cycle;Max_cycle;Signal;HPM_P1;HPM_P2
2022/11/29 00:00:51;;;;;;;12.43;7.10;;;7.40;99.90;;;;;;5001897;28;20046;-78
2022/11/29 00:03:19;;;;;;;9.93;5.90;;;7.50;99.90;;;;;;5000036;28;20036;-77
2022/11/29 00:05:48;;;;;;;10.20;5.65;;;7.50;99.90;;;;;;5003965;28;20022;-79
2022/11/29 00:08:26;;;;;;;6.10;3.78;;;7.40;99.90;;;;;;4996874;28;20015;-79
2022/11/29 00:10:52;;;;;;;5.20;3.30;;;7.50;99.90;;;;;;4996043;28;20019;-80
2022/11/29 00:13:17;;;;;;;3.15;2.22;;;7.50;99.90;;;;;;4999151;28;20382;-78
2022/11/29 00:16:02;;;;;;;3.55;2.42;;;7.50;99.90;;;;;;4999009;28;20030;-77
2022/11/29 00:18:28;;;;;;;2.67;2.03;;;7.50;99.90;;;;;;4998572;28;20109;-79
2022/11/29 00:20:54;;;;;;;4.65;1.70;;;7.50;99.90;;;;;;5001347;28;20050;-79
2022/11/29 00:23:19;;;;;;;3.30;2.33;;;7.60;99.90;;;;;;4997114;28;20085;-77
2022/11/29 00:25:51;;;;;;;5.70;2.35;;;7.60;99.90;;;;;;5000685;28;20046;-79
2022/11/29 00:28:17;;;;;;;4.65;2.25;;;7.60;99.90;;;;;;4991871;28;20006;-78
2022/11/29 00:30:46;;;;;;;3.97;2.45;;;7.60;99.90;;;;;;5002282;28;20030;-80
2022/11/29 00:33:11;;;;;;;4.78;2.30;;;7.60;99.90;;;;;;4996745;28;20037;-80
2022/11/29 00:35:37;;;;;;;3.45;2.20;;;7.60;99.90;;;;;;4995762;28;20483;-79
2022/11/29 00:38:15;;;;;;;4.40;2.30;;;7.60;99.90;;;;;;4997109;28;20034;-76
2022/11/29 00:40:43;;;;;;;3.70;2.05;;;7.50;99.90;;;;;;4997493;28;20029;-78
2022/11/29 00:43:12;;;;;;;7.32;1.92;;;7.60;99.90;;;;;;4995978;28;20034;-79
2022/11/29 00:45:37;;;;;;;4.50;2.00;;;7.50;99.90;;;;;;4991449;28;20019;-80
2022/11/29 00:48:06;;;;;;;4.22;1.60;;;7.50;99.90;;;;;;4995382;28;20380;-80
2022/11/29 00:50:32;;;;;;;3.70;2.08;;;7.60;99.90;;;;;;4998120;28;20030;-79
2022/11/29 00:52:57;;;;;;;3.42;1.77;;;7.50;99.90;;;;;;4998408;28;20548;-77
2022/11/29 00:55:23;;;;;;;3.85;1.92;;;7.60;99.90;;;;;;5000507;28;20041;-77
2022/11/29 00:58:05;;;;;;;4.38;1.63;;;7.60;99.90;;;;;;4996035;28;20041;-81
2022/11/29 01:00:33;;;;;;;4.65;1.73;;;7.60;99.90;;;;;;4993489;28;20027;-79
2022/11/29 01:03:00;;;;;;;2.55;1.60;;;7.60;99.90;;;;;;4998441;28;20038;-79
2022/11/29 01:05:30;;;;;;;3.72;1.80;;;7.60;99.90;;;;;;4997114;28;20105;-80
2022/11/29 01:08:02;;;;;;;3.35;1.40;;;7.60;99.90;;;;;;4998728;28;20038;-80
2022/11/29 01:10:34;;;;;;;2.85;1.55;;;7.60;99.90;;;;;;4995870;28;20038;-79
2022/11/29 01:12:59;;;;;;;7.35;2.25;;;7.60;99.90;;;;;;4995801;28;20502;-78
2022/11/29 01:15:28;;;;;;;4.70;2.05;;;7.60;99.90;;;;;;4993864;28;20030;-80
2022/11/29 01:17:53;;;;;;;2.00;1.40;;;7.60;99.90;;;;;;4996553;28;20030;-79
2022/11/29 01:20:20;;;;;;;2.92;1.23;;;7.60;99.90;;;;;;5001220;28;20494;-79
2022/11/29 01:22:45;;;;;;;3.40;1.42;;;7.60;99.90;;;;;;4997286;28;20015;-79
2022/11/29 01:25:12;;;;;;;3.33;1.90;;;7.60;99.90;;;;;;4995101;28;20380;-80
2022/11/29 01:27:41;;;;;;;2.60;1.45;;;7.60;99.90;;;;;;4998961;28;20038;-78
2022/11/29 01:30:08;;;;;;;2.05;1.20;;;7.60;99.90;;;;;;4997150;28;20451;-79
2022/11/29 01:32:34;;;;;;;3.10;1.45;;;7.60;99.90;;;;;;4994716;28;20499;-80
2022/11/29 01:35:06;;;;;;;5.70;2.10;;;7.60;99.90;;;;;;4998650;28;20035;-79
2022/11/29 01:37:32;;;;;;;2.47;1.48;;;7.60;99.90;;;;;;4994237;28;20133;-79
2022/11/29 01:40:04;;;;;;;4.22;1.98;;;7.60;99.90;;;;;;4995249;28;20026;-78
2022/11/29 01:42:30;;;;;;;2.60;1.20;;;7.60;99.90;;;;;;5003591;28;20109;-80
2022/11/29 01:45:02;;;;;;;3.25;1.48;;;7.60;99.90;;;;;;4993291;28;20057;-80
2022/11/29 01:47:42;;;;;;;3.83;1.50;;;7.60;99.90;;;;;;4999906;28;20395;-80
2022/11/29 01:50:10;;;;;;;5.70;1.98;;;7.60;99.90;;;;;;5000122;28;20029;-77
2022/11/29 01:52:37;;;;;;;4.22;1.50;;;7.60;99.90;;;;;;4998871;28;20372;-79
2022/11/29 01:55:08;;;;;;;5.75;1.58;;;7.60;99.90;;;;;;4996437;28;20038;-79
2022/11/29 01:57:38;;;;;;;3.40;1.58;;;7.60;99.90;;;;;;4995188;28;20034;-78
2022/11/29 02:00:09;;;;;;;2.00;1.05;;;7.60;99.90;;;;;;4990091;28;20053;-78
2022/11/29 02:02:50;;;;;;;3.55;1.40;;;7.60;99.90;;;;;;4994965;28;20018;-77
2022/11/29 02:05:18;;;;;;;6.30;1.92;;;7.60;99.90;;;;;;4993465;28;20125;-78
2022/11/29 02:07:50;;;;;;;6.45;1.85;;;7.60;99.90;;;;;;4996145;28;20517;-78
2022/11/29 02:10:16;;;;;;;3.97;1.85;;;7.60;99.90;;;;;;4995370;28;20028;-77
2022/11/29 02:13:10;;;;;;;4.85;1.38;;;7.60;99.90;;;;;;4994946;28;20039;-75
2022/11/29 02:15:49;;;;;;;5.07;2.08;;;7.60;99.90;;;;;;4996052;28;20034;-77
2022/11/29 02:18:22;;;;;;;5.32;2.03;;;7.60;99.90;;;;;;5010041;28;20077;-78
2022/11/29 02:21:36;;;;;;;3.80;1.58;;;7.60;99.90;;;;;;4988822;28;20427;-79
2022/11/29 02:24:42;;;;;;;5.35;1.60;;;7.60;99.90;;;;;;4983752;28;20096;-76
2022/11/29 02:27:55;;;;;;;6.70;1.60;;;7.60;99.90;;;;;;4947269;28;20038;-78
2022/11/29 02:31:01;;;;;;;5.30;1.60;;;7.60;99.90;;;;;;4985404;28;20053;-78
2022/11/29 02:34:05;;;;;;;2.92;1.30;;;7.50;99.90;;;;;;4992627;28;20031;-78
2022/11/29 02:36:57;;;;;;;3.15;1.48;;;7.60;99.90;;;;;;4991758;28;20497;-80
2022/11/29 02:39:37;;;;;;;4.47;1.40;;;7.50;99.90;;;;;;4991024;28;20031;-80
2022/11/29 02:42:24;;;;;;;2.70;1.25;;;7.50;99.90;;;;;;4992200;28;20380;-77
2022/11/29 02:45:24;;;;;;;3.03;1.50;;;7.50;99.90;;;;;;4995646;28;20029;-78
2022/11/29 02:48:15;;;;;;;6.00;1.48;;;7.50;99.90;;;;;;4990710;28;20402;-78
2022/11/29 02:51:18;;;;;;;4.88;1.83;;;7.50;99.90;;;;;;4997440;28;20033;-78
2022/11/29 02:54:23;;;;;;;5.30;1.40;;;7.50;99.90;;;;;;4998080;28;20081;-77
2022/11/29 02:57:00;;;;;;;7.45;1.58;;;7.50;99.90;;;;;;4995636;28;20035;-77
2022/11/29 02:59:52;;;;;;;5.50;1.90;;;7.50;99.90;;;;;;4994473;28;20075;-78
2022/11/29 03:02:27;;;;;;;5.47;1.50;;;7.50;99.90;;;;;;4989664;28;20026;-79
2022/11/29 03:05:14;;;;;;;3.28;1.42;;;7.50;99.90;;;;;;4993106;28;20082;-78
2022/11/29 03:08:07;;;;;;;4.95;1.55;;;7.50;99.90;;;;;;4995561;28;20450;-78
2022/11/29 03:11:10;;;;;;;5.15;1.40;;;7.50;99.90;;;;;;4995294;28;20432;-78
2022/11/29 03:14:14;;;;;;;4.43;1.40;;;7.50;99.90;;;;;;4992420;28;20041;-79
2022/11/29 03:17:07;;;;;;;3.47;1.40;;;7.50;99.90;;;;;;4992557;28;20113;-78
2022/11/29 03:20:17;;;;;;;5.30;1.63;;;7.50;99.90;;;;;;4986294;28;20044;-78
2022/11/29 03:23:20;;;;;;;5.13;1.98;;;7.50;99.90;;;;;;4984424;28;20031;-79
2022/11/29 03:25:58;;;;;;;4.68;1.70;;;7.50;99.90;;;;;;4991619;28;20037;-78
2022/11/29 03:28:47;;;;;;;8.75;1.83;;;7.50;99.90;;;;;;4991646;28;20100;-77
2022/11/29 03:31:32;;;;;;;6.05;1.23;;;7.50;99.90;;;;;;4995164;28;20061;-80
2022/11/29 03:34:47;;;;;;;4.70;1.20;;;7.50;99.90;;;;;;4994101;28;20032;-79
2022/11/29 03:37:35;;;;;;;1.90;1.00;;;7.50;99.90;;;;;;4989061;28;20021;-80
2022/11/29 03:40:26;;;;;;;9.68;1.92;;;7.50;99.90;;;;;;4984771;28;20239;-79
2022/11/29 03:43:11;;;;;;;5.57;1.40;;;7.50;99.90;;;;;;4992986;28;20033;-79
2022/11/29 03:46:14;;;;;;;5.10;1.30;;;7.50;99.90;;;;;;4997470;28;20046;-78
2022/11/29 03:48:52;;;;;;;2.88;1.02;;;7.40;99.90;;;;;;4994911;28;20022;-79
2022/11/29 03:51:41;;;;;;;5.97;1.25;;;7.50;99.90;;;;;;4993548;28;20407;-79
2022/11/29 03:54:49;;;;;;;6.55;1.30;;;7.50;99.90;;;;;;4988219;28;20035;-79
2022/11/29 03:57:20;;;;;;;6.65;1.40;;;7.50;99.90;;;;;;4955096;28;20039;-79
2022/11/29 03:59:54;;;;;;;3.38;1.40;;;7.50;99.90;;;;;;4987365;28;20037;-77
2022/11/29 04:02:59;;;;;;;6.18;1.75;;;7.50;99.90;;;;;;4996085;28;20045;-78
2022/11/29 04:05:28;;;;;;;6.15;1.70;;;7.40;99.90;;;;;;4990109;28;20035;-79
2022/11/29 04:08:31;;;;;;;4.38;1.38;;;7.50;99.90;;;;;;4993337;28;20718;-79
2022/11/29 04:11:53;;;;;;;4.53;1.48;;;7.50;99.90;;;;;;5000906;23;20141;-75
2022/11/29 04:14:59;;;;;;;7.50;1.52;;;7.50;99.90;;;;;;4967191;28;20047;-75
2022/11/29 04:17:58;;;;;;;3.15;1.13;;;7.50;99.90;;;;;;4964853;28;20102;-75
2022/11/29 04:20:45;;;;;;;8.25;1.45;;;7.50;99.90;;;;;;4968303;28;20050;-75
2022/11/29 04:23:49;;;;;;;3.33;1.23;;;7.50;99.90;;;;;;4952204;28;20031;-76
2022/11/29 04:26:42;;;;;;;2.88;1.00;;;7.50;99.90;;;;;;4950106;28;20388;-75
2022/11/29 04:29:44;;;;;;;3.33;1.05;;;7.50;99.90;;;;;;4944819;28;20057;-74
2022/11/29 04:32:12;;;;;;;5.05;1.42;;;7.50;99.90;;;;;;4951163;28;20094;-75
2022/11/29 04:35:25;;;;;;;5.05;1.40;;;7.50;99.90;;;;;;4954893;28;20484;-75
2022/11/29 04:38:15;;;;;;;6.38;1.75;;;7.50;99.90;;;;;;4932115;28;20178;-75
2022/11/29 04:41:27;;;;;;;8.00;1.70;;;7.50;99.90;;;;;;4954708;28;20138;-75
2022/11/29 04:44:19;;;;;;;3.78;1.27;;;7.50;99.90;;;;;;4960907;28;20102;-75
2022/11/29 04:47:18;;;;;;;6.15;1.52;;;7.50;99.90;;;;;;4955878;28;20388;-75
2022/11/29 04:50:12;;;;;;;7.22;1.70;;;7.50;99.90;;;;;;4956577;28;20034;-75
2022/11/29 04:52:44;;;;;;;4.32;1.58;;;7.50;99.90;;;;;;4957962;28;20054;-76
2022/11/29 04:55:19;;;;;;;8.63;1.60;;;7.50;99.90;;;;;;4953118;28;20039;-76
2022/11/29 04:58:36;;;;;;;4.07;1.20;;;7.60;99.90;;;;;;4969624;28;20492;-76
2022/11/29 05:01:42;;;;;;;4.82;1.45;;;7.60;99.90;;;;;;4933461;28;20102;-76
2022/11/29 05:04:30;;;;;;;10.40;1.90;;;7.60;99.90;;;;;;4954602;28;20069;-76
2022/11/29 05:07:16;;;;;;;5.93;1.98;;;7.60;99.90;;;;;;4951569;28;20119;-76
2022/11/29 05:10:18;;;;;;;8.30;1.60;;;7.60;99.90;;;;;;4953782;28;20029;-75
2022/11/29 05:13:11;;;;;;;5.25;1.20;;;7.60;99.90;;;;;;4959507;28;20407;-76
2022/11/29 05:16:01;;;;;;;8.07;1.73;;;7.60;99.90;;;;;;4951298;28;20105;-75
2022/11/29 05:18:45;;;;;;;9.73;2.10;;;7.60;99.90;;;;;;4952474;28;20032;-75
2022/11/29 05:21:38;;;;;;;6.93;2.53;;;7.60;99.90;;;;;;4952630;28;20370;-76
2022/11/29 05:24:43;;;;;;;10.63;2.10;;;7.60;99.90;;;;;;4955161;28;20137;-76
2022/11/29 05:27:14;;;;;;;8.95;1.95;;;7.60;99.90;;;;;;4950476;28;20042;-77
2022/11/29 05:29:52;;;;;;;6.45;2.00;;;7.60;99.90;;;;;;4953136;28;20027;-75
2022/11/29 05:32:29;;;;;;;8.18;1.65;;;7.60;99.90;;;;;;4952968;28;20034;-76
2022/11/29 05:35:35;;;;;;;6.22;1.60;;;7.60;99.90;;;;;;4955464;28;20031;-75
2022/11/29 05:38:25;;;;;;;5.78;1.67;;;7.60;99.90;;;;;;4953173;28;20033;-75
2022/11/29 05:41:09;;;;;;;5.25;1.85;;;7.60;99.90;;;;;;4953494;28;20049;-75
2022/11/29 05:43:59;;;;;;;8.18;1.95;;;7.60;99.90;;;;;;4956726;28;20019;-76
2022/11/29 05:46:52;;;;;;;8.20;2.30;;;7.60;99.90;;;;;;4956606;28;20026;-77
2022/11/29 05:49:43;;;;;;;6.03;1.60;;;7.60;99.90;;;;;;4957234;28;20031;-77
2022/11/29 05:52:45;;;;;;;8.32;2.92;;;7.60;99.90;;;;;;4951826;28;20095;-77
2022/11/29 05:55:14;;;;;;;13.80;2.95;;;7.60;99.90;;;;;;4950715;28;20042;-77
2022/11/29 05:58:26;;;;;;;14.05;3.67;;;7.60;99.90;;;;;;4944912;28;20034;-75
2022/11/29 06:01:20;;;;;;;6.70;3.20;;;7.70;99.90;;;;;;4947126;28;20086;-75
2022/11/29 06:04:17;;;;;;;14.48;10.65;;;7.70;99.90;;;;;;4958109;28;20080;-75
2022/11/29 06:07:06;;;;;;;7.78;3.13;;;7.70;99.90;;;;;;4957781;28;20106;-74
2022/11/29 06:10:01;;;;;;;10.15;2.42;;;7.60;99.90;;;;;;4956743;28;20039;-75
2022/11/29 06:12:30;;;;;;;9.30;2.55;;;7.60;99.90;;;;;;4951402;28;20562;-75
2022/11/29 06:15:41;;;;;;;6.32;2.55;;;7.60;99.90;;;;;;4951785;28;20027;-75
2022/11/29 06:18:31;;;;;;;5.88;2.50;;;7.60;99.90;;;;;;4952086;28;20023;-73
2022/11/29 06:21:12;;;;;;;8.13;2.45;;;7.60;99.90;;;;;;4952195;28;20036;-75
2022/11/29 06:23:47;;;;;;;10.98;2.75;;;7.60;99.90;;;;;;4950986;28;20015;-75
2022/11/29 06:26:40;;;;;;;10.57;3.08;;;7.60;99.90;;;;;;4953453;28;20037;-76
2022/11/29 06:29:33;;;;;;;8.38;3.40;;;7.60;99.90;;;;;;4947735;28;20023;-75
2022/11/29 06:32:20;;;;;;;5.45;2.20;;;7.60;99.90;;;;;;4955127;28;20469;-75
2022/11/29 06:35:10;;;;;;;13.85;3.22;;;7.60;99.90;;;;;;4952821;28;20062;-74
2022/11/29 06:37:47;;;;;;;6.53;1.90;;;7.60;99.90;;;;;;4945777;28;20031;-75
2022/11/29 06:40:14;;;;;;;10.35;2.60;;;7.60;99.90;;;;;;4946728;28;20054;-73
2022/11/29 06:42:43;;;;;;;8.85;2.70;;;7.60;99.90;;;;;;4958198;28;20078;-72
2022/11/29 06:45:15;;;;;;;5.68;2.78;;;7.60;99.90;;;;;;4949841;28;20534;-72
2022/11/29 06:47:44;;;;;;;12.07;2.60;;;7.60;99.90;;;;;;4935042;28;20031;-75
2022/11/29 06:50:46;;;;;;;9.32;3.13;;;7.60;99.90;;;;;;4933759;28;20126;-73
2022/11/29 06:53:23;;;;;;;6.93;2.67;;;7.70;99.90;;;;;;4946831;28;20027;-72
2022/11/29 06:56:01;;;;;;;14.20;2.88;;;7.70;99.90;;;;;;4949065;28;20023;-73
2022/11/29 06:58:51;;;;;;;10.63;2.22;;;7.70;99.90;;;;;;4955921;28;20034;-74
2022/11/29 07:01:59;;;;;;;10.80;2.08;;;7.80;99.90;;;;;;4948763;28;20662;-75
2022/11/29 07:04:45;;;;;;;6.60;2.75;;;7.70;99.90;;;;;;4934906;28;20038;-77
2022/11/29 07:07:17;;;;;;;9.98;2.97;;;7.70;99.90;;;;;;4950509;28;20039;-76
2022/11/29 07:09:48;;;;;;;9.05;2.88;;;7.80;99.90;;;;;;4951999;28;20031;-76
2022/11/29 07:12:15;;;;;;;9.55;2.38;;;7.70;99.90;;;;;;4952795;28;20031;-75
2022/11/29 07:14:47;;;;;;;7.40;2.22;;;7.70;99.90;;;;;;4952459;28;20109;-75
2022/11/29 07:17:30;;;;;;;7.55;2.08;;;7.70;99.90;;;;;;4951234;28;20408;-76
2022/11/29 07:20:09;;;;;;;10.75;2.65;;;7.70;99.90;;;;;;4950103;28;20019;-76
2022/11/29 07:22:49;;;;;;;13.57;2.47;;;7.70;99.90;;;;;;4961646;28;20039;-75
2022/11/29 07:25:45;;;;;;;7.72;2.63;;;7.60;99.90;;;;;;4945329;28;20027;-75
2022/11/29 07:28:31;;;;;;;6.55;2.72;;;7.60;99.90;;;;;;4952914;28;20034;-74
2022/11/29 07:30:57;;;;;;;5.13;2.40;;;7.60;99.90;;;;;;4950303;28;20047;-75
2022/11/29 07:33:46;;;;;;;9.20;2.28;;;7.60;99.90;;;;;;4953406;28;20019;-74
2022/11/29 07:36:36;;;;;;;8.13;2.65;;;7.60;99.90;;;;;;4951346;28;20027;-75
2022/11/29 07:39:33;;;;;;;12.30;3.58;;;7.60;99.90;;;;;;4944334;28;20031;-75
2022/11/29 07:42:16;;;;;;;10.80;2.70;;;7.50;99.90;;;;;;4948999;28;20082;-75
2022/11/29 07:44:59;;;;;;;8.57;3.13;;;7.60;99.90;;;;;;4948796;28;20514;-75
2022/11/29 07:47:28;;;;;;;5.23;2.97;;;7.50;99.90;;;;;;4948247;28;20027;-75
2022/11/29 07:49:53;;;;;;;9.70;2.92;;;7.50;99.90;;;;;;4944751;28;20034;-75
2022/11/29 07:52:22;;;;;;;7.53;2.97;;;7.50;99.90;;;;;;4948387;28;20035;-75
2022/11/29 07:54:48;;;;;;;12.73;3.10;;;7.50;99.90;;;;;;4953263;28;20451;-75
2022/11/29 07:57:14;;;;;;;13.25;3.63;;;7.50;99.90;;;;;;4947489;28;20162;-77
2022/11/29 07:59:40;;;;;;;10.68;3.47;;;7.50;99.90;;;;;;4942041;28;20031;-76
2022/11/29 08:02:10;;;;;;;9.02;3.50;;;7.50;99.90;;;;;;4949792;28;20031;-76
2022/11/29 08:04:41;;;;;;;16.23;3.95;;;7.50;99.90;;;;;;4948783;28;20028;-75
2022/11/29 08:07:07;;;;;;;11.55;3.50;;;7.50;99.90;;;;;;4964528;28;20403;-75
2022/11/29 08:09:33;;;;;;;12.35;4.15;;;7.50;99.90;;;;;;4949882;28;20031;-76
2022/11/29 08:11:59;;;;;;;11.25;3.88;;;7.50;99.90;;;;;;4954452;28;20035;-76
2022/11/29 08:14:32;;;;;;;7.07;3.83;;;7.50;99.90;;;;;;4948959;28;20047;-75
2022/11/29 08:16:57;;;;;;;13.85;3.55;;;7.50;99.90;;;;;;4948107;28;20648;-76
2022/11/29 08:19:23;;;;;;;7.88;3.83;;;7.50;99.90;;;;;;4951674;28;20114;-76
2022/11/29 08:21:54;;;;;;;13.00;3.80;;;7.50;99.90;;;;;;4956872;28;20019;-76
2022/11/29 08:24:26;;;;;;;12.93;5.00;;;7.50;99.90;;;;;;4951267;28;20457;-75
2022/11/29 08:26:53;;;;;;;10.13;3.80;;;7.50;99.90;;;;;;4951670;28;20027;-76
2022/11/29 08:29:18;;;;;;;10.45;3.80;;;7.50;99.90;;;;;;4957107;28;20027;-75
2022/11/29 08:31:44;;;;;;;9.85;3.40;;;7.50;99.90;;;;;;4953631;28;20058;-76
2022/11/29 08:34:21;;;;;;;12.75;3.85;;;7.50;99.90;;;;;;4954642;28;20042;-75
2022/11/29 08:36:47;;;;;;;12.70;3.95;;;7.50;99.90;;;;;;4953864;28;20031;-75
2022/11/29 08:39:12;;;;;;;9.02;2.90;;;7.50;99.90;;;;;;4950972;28;20058;-75
2022/11/29 08:41:38;;;;;;;12.18;3.10;;;7.50;99.90;;;;;;4954115;28;20024;-76
2022/11/29 08:44:07;;;;;;;12.77;3.35;;;7.50;99.90;;;;;;4947542;28;20539;-76
2022/11/29 08:47:41;;;;;;;12.98;3.20;;;7.50;99.90;;;;;;4949727;28;20034;-75
2022/11/29 08:49:33;;;;;;;7.20;3.47;;;7.50;99.90;;;;;;4948420;28;20117;-75
2022/11/29 08:54:59;;;;;;;10.25;4.70;;;7.50;99.90;;;;;;4943285;28;20556;-76
2022/11/29 08:57:25;;;;;;;16.58;3.53;;;7.50;99.90;;;;;;4952431;28;20054;-75
2022/11/29 08:59:54;;;;;;;8.95;3.35;;;7.50;99.90;;;;;;4956295;28;20507;-76
2022/11/29 09:02:19;;;;;;;10.25;3.50;;;7.50;99.90;;;;;;4950903;28;20038;-77
2022/11/29 09:04:45;;;;;;;6.97;3.10;;;7.50;99.90;;;;;;4974323;28;20023;-76
2022/11/29 09:07:11;;;;;;;9.60;3.53;;;7.60;99.90;;;;;;4958723;28;20039;-76
2022/11/29 09:09:37;;;;;;;11.68;3.60;;;7.50;99.90;;;;;;4954053;28;20101;-78
2022/11/29 09:12:07;;;;;;;7.88;3.20;;;7.50;99.90;;;;;;4949573;28;20552;-75
2022/11/29 09:14:33;;;;;;;7.43;2.88;;;7.50;99.90;;;;;;4945646;28;20034;-76
2022/11/29 09:17:05;;;;;;;7.15;2.95;;;7.60;99.90;;;;;;4952648;28;20023;-75
2022/11/29 09:19:30;;;;;;;6.15;2.80;;;7.60;99.90;;;;;;4952762;28;20086;-75
2022/11/29 09:21:59;;;;;;;7.47;3.08;;;7.60;99.90;;;;;;4951360;28;20035;-76
2022/11/29 09:24:27;;;;;;;10.02;3.72;;;7.60;99.90;;;;;;4952641;28;20039;-75
2022/11/29 09:27:05;;;;;;;10.50;3.10;;;7.60;99.90;;;;;;4950014;28;20042;-76
2022/11/29 09:29:31;;;;;;;8.35;3.40;;;7.60;99.90;;;;;;4955295;28;20042;-76
2022/11/29 09:31:56;;;;;;;9.32;2.95;;;7.60;99.90;;;;;;4950089;28;20475;-76
2022/11/29 09:34:22;;;;;;;6.63;3.03;;;7.70;99.90;;;;;;4952290;28;20039;-74
2022/11/29 09:36:48;;;;;;;11.45;3.15;;;7.70;99.90;;;;;;4953864;28;20159;-75
2022/11/29 09:39:26;;;;;;;11.70;3.17;;;7.60;99.90;;;;;;4952599;28;20540;-75
2022/11/29 09:42:01;;;;;;;10.25;2.97;;;7.70;99.90;;;;;;4954576;28;20027;-76
2022/11/29 09:44:48;;;;;;;5.38;2.10;;;7.70;99.90;;;;;;4952298;28;20235;-76
2022/11/29 09:47:48;;;;;;;6.78;3.13;;;7.70;99.90;;;;;;4951847;28;20134;-75
2022/11/29 09:50:26;;;;;;;10.35;3.40;;;7.70;99.90;;;;;;4955315;28;20035;-74
2022/11/29 09:53:30;;;;;;;6.75;2.88;;;7.70;99.90;;;;;;4958334;28;20027;-75
2022/11/29 09:56:29;;;;;;;8.32;2.75;;;7.70;99.90;;;;;;4952258;28;20530;-75
2022/11/29 09:59:04;;;;;;;6.22;2.65;;;7.70;99.90;;;;;;4955542;28;20058;-75
2022/11/29 10:02:20;;;;;;;9.05;2.80;;;7.70;99.90;;;;;;4954041;28;20085;-75
2022/11/29 10:05:24;;;;;;;6.05;2.63;;;7.70;99.90;;;;;;4947328;28;20124;-75
2022/11/29 10:08:12;;;;;;;7.38;2.95;;;7.70;99.90;;;;;;4918769;28;20057;-75
2022/11/29 10:10:48;;;;;;;7.97;2.83;;;7.80;99.90;;;;;;4957736;28;20027;-77
2022/11/29 10:13:33;;;;;;;14.27;5.55;;;7.80;99.90;;;;;;4953761;28;20046;-76
2022/11/29 10:16:19;;;;;;;10.18;3.70;;;7.80;99.90;;;;;;4960320;28;20039;-77
2022/11/29 10:18:57;;;;;;;6.88;2.75;;;7.80;99.90;;;;;;4959764;28;20388;-79
2022/11/29 10:21:31;;;;;;;9.55;2.75;;;7.80;99.90;;;;;;4953425;28;20023;-79
2022/11/29 10:24:07;;;;;;;;;;;7.80;99.90;;;;;;4968431;28;20035;-78
2022/11/29 10:26:33;;;;;;;7.85;2.85;;;7.80;99.90;;;;;;4957375;28;19926;-78
2022/11/29 10:29:07;;;;;;;7.22;2.70;;;7.80;99.90;;;;;;4956850;28;20027;-77
2022/11/29 10:31:42;;;;;;;;;;;7.80;99.90;;;;;;4953117;28;20050;-77
2022/11/29 10:34:13;;;;;;;10.18;3.70;;;7.80;99.90;;;;;;4952950;28;20383;-76
2022/11/29 10:36:49;;;;;;;9.48;3.83;;;7.80;99.90;;;;;;4953304;28;20030;-77
2022/11/29 10:39:49;;;;;;;8.60;3.55;;;7.80;99.90;;;;;;4954264;28;20046;-76
2022/11/29 10:45:49;;;;;;;5.93;3.38;;;7.80;99.90;;;;;;4953048;28;20514;-78
2022/11/29 10:48:41;;;;;;;10.40;3.42;;;7.80;99.90;;;;;;4949250;28;20039;-78
2022/11/29 10:51:15;;;;;;;10.57;3.75;;;7.80;99.90;;;;;;4954893;28;20098;-78
2022/11/29 10:53:41;;;;;;;10.30;4.53;;;7.80;99.90;;;;;;4956700;28;20388;-77
2022/11/29 10:56:43;;;;;;;8.15;3.38;;;7.80;99.90;;;;;;4958193;28;20035;-77
2022/11/29 10:59:20;;;;;;;9.52;3.85;;;7.80;99.90;;;;;;4938844;28;20433;-77
2022/11/29 11:01:46;;;;;;;7.30;3.78;;;7.80;99.90;;;;;;4952690;28;20512;-77
2022/11/29 11:04:21;;;;;;;9.18;4.15;;;7.80;99.90;;;;;;4953255;28;20032;-77
2022/11/29 11:06:56;;;;;;;7.80;3.47;;;7.80;99.90;;;;;;4948042;28;20110;-77
2022/11/29 11:09:35;;;;;;;12.45;3.80;;;7.80;99.90;;;;;;4957394;28;20073;-76
2022/11/29 11:12:20;;;;;;;8.55;4.07;;;7.80;99.90;;;;;;4956304;28;20110;-76
2022/11/29 11:14:51;;;;;;;11.07;4.38;;;7.80;99.90;;;;;;4952410;28;20031;-74
2022/11/29 11:17:24;;;;;;;9.82;4.55;;;7.80;99.90;;;;;;4953580;28;20051;-76
2022/11/29 11:20:19;;;;;;;10.95;4.43;;;7.80;99.90;;;;;;4952556;28;20031;-77
2022/11/29 11:23:05;;;;;;;9.70;3.33;;;7.80;99.90;;;;;;4954317;28;20035;-77
2022/11/29 11:25:33;;;;;;;7.53;3.25;;;7.80;99.90;;;;;;4952262;28;20571;-77
2022/11/29 11:28:30;;;;;;;10.40;4.70;;;7.80;99.90;;;;;;4952980;28;20038;-76
2022/11/29 11:31:08;;;;;;;9.15;4.38;;;7.80;99.90;;;;;;4951985;28;20563;-76
2022/11/29 11:33:36;;;;;;;9.45;4.28;;;7.80;99.90;;;;;;4950210;29;20031;-78
2022/11/29 11:36:23;;;;;;;11.18;4.28;;;7.80;99.90;;;;;;4953521;29;20111;-76
2022/11/29 11:38:48;;;;;;;10.57;3.53;;;7.80;99.90;;;;;;4947373;28;20030;-76
2022/11/29 11:41:21;;;;;;;6.57;3.60;;;7.80;99.90;;;;;;4951167;28;20031;-75
2022/11/29 11:43:52;;;;;;;8.18;3.42;;;7.80;99.90;;;;;;4949170;28;20435;-75
2022/11/29 11:46:19;;;;;;;4.68;2.67;;;7.80;99.90;;;;;;4963709;28;20461;-75
2022/11/29 11:48:45;;;;;;;6.97;3.80;;;7.70;99.90;;;;;;4947472;28;20036;-75
2022/11/29 11:51:21;;;;;;;5.88;3.65;;;7.80;99.90;;;;;;4945741;28;20030;-74
2022/11/29 11:53:56;;;;;;;7.00;3.65;;;7.80;99.90;;;;;;4953566;28;20118;-76
2022/11/29 11:56:26;;;;;;;6.97;3.70;;;7.70;99.90;;;;;;4951333;28;20102;-75
2022/11/29 11:58:55;;;;;;;8.60;3.70;;;7.70;99.90;;;;;;4951761;28;20028;-77
2022/11/29 12:01:36;;;;;;;9.60;3.88;;;7.70;99.90;;;;;;4950458;28;20062;-75
2022/11/29 12:04:16;;;;;;;8.95;3.30;;;7.70;99.90;;;;;;4944985;28;20098;-77
2022/11/29 12:07:00;;;;;;;10.93;4.25;;;7.70;99.90;;;;;;4946890;28;20400;-75
2022/11/29 12:09:53;;;;;;;7.53;4.22;;;7.70;99.90;;;;;;4948606;28;20039;-77
2022/11/29 12:12:26;;;;;;;6.72;3.90;;;7.70;99.90;;;;;;4949671;28;20047;-77
2022/11/29 12:15:00;;;;;;;9.13;4.37;;;7.70;99.90;;;;;;4951629;29;20404;-76
2022/11/29 12:17:30;;;;;;;7.43;4.32;;;7.80;99.90;;;;;;4950057;28;20276;-75
2022/11/29 12:20:09;;;;;;;10.43;3.92;;;7.70;99.90;;;;;;4949693;28;20023;-75
2022/11/29 12:22:56;;;;;;;6.70;3.97;;;7.80;99.90;;;;;;4952166;28;20023;-76
2022/11/29 12:25:34;;;;;;;12.43;4.97;;;7.80;99.90;;;;;;4949079;28;20023;-76
2022/11/29 12:28:00;;;;;;;7.03;4.45;;;7.80;99.90;;;;;;4948777;28;20080;-73
2022/11/29 12:30:26;;;;;;;8.00;4.20;;;7.90;99.90;;;;;;4948245;28;20191;-75
2022/11/29 12:33:19;;;;;;;7.90;4.03;;;7.90;99.90;;;;;;4952330;28;20368;-75
2022/11/29 12:36:03;;;;;;;10.57;4.88;;;7.90;99.90;;;;;;4949615;28;20031;-75
2022/11/29 12:38:40;;;;;;;9.07;4.95;;;7.80;99.90;;;;;;4955116;28;20563;-75
2022/11/29 12:41:46;;;;;;;9.50;4.80;;;7.80;99.90;;;;;;4946529;28;20034;-74
2022/11/29 12:44:39;;;;;;;7.05;4.75;;;7.80;99.90;;;;;;4950257;28;20551;-75
2022/11/29 12:47:24;;;;;;;9.73;5.65;;;7.80;99.90;;;;;;4950399;29;20182;-74
2022/11/29 12:50:14;;;;;;;9.02;4.97;;;7.80;99.90;;;;;;4951068;29;20086;-75
2022/11/29 12:53:07;;;;;;;12.18;6.20;;;7.80;99.90;;;;;;4948504;28;20032;-76
2022/11/29 12:55:35;;;;;;;8.63;5.35;;;7.80;99.90;;;;;;4952030;29;20037;-75
2022/11/29 12:58:01;;;;;;;8.23;5.25;;;7.70;99.90;;;;;;4951750;28;20035;-75
2022/11/29 13:00:33;;;;;;;11.05;6.00;;;7.70;99.90;;;;;;4956251;28;20023;-77
2022/11/29 13:03:17;;;;;;;13.63;6.95;;;7.70;99.90;;;;;;4963473;28;20047;-75
2022/11/29 13:06:01;;;;;;;9.65;5.72;;;7.70;99.90;;;;;;4958000;28;20035;-76
2022/11/29 13:08:35;;;;;;;;;;;7.70;99.90;;;;;;4955870;28;20039;-75
2022/11/29 13:11:20;;;;;;;8.18;5.53;;;7.70;99.90;;;;;;4953439;28;20336;-76
2022/11/29 13:13:51;;;;;;;13.02;7.07;;;7.80;99.90;;;;;;4952299;28;20042;-73
2022/11/29 13:16:39;;;;;;;10.88;6.57;;;7.80;99.90;;;;;;4965795;28;20030;-76
2022/11/29 13:19:17;;;;;;;13.50;6.80;;;7.70;99.90;;;;;;4950377;28;20031;-75
2022/11/29 13:22:00;;;;;;;15.82;9.70;;;7.80;99.90;;;;;;4953036;28;20027;-75
2022/11/29 13:24:37;;;;;;;12.18;7.53;;;7.70;99.90;;;;;;4953640;28;20551;-76
2022/11/29 13:27:05;;;;;;;11.25;7.35;;;7.70;99.90;;;;;;4949782;28;20039;-74
2022/11/29 13:29:34;;;;;;;14.00;8.48;;;7.70;99.90;;;;;;4955484;28;20035;-76
2022/11/29 13:32:03;;;;;;;10.80;7.28;;;7.70;99.90;;;;;;4952796;28;20369;-76
2022/11/29 13:34:41;;;;;;;14.07;7.78;;;7.60;99.90;;;;;;4956340;28;20035;-75
2022/11/29 13:37:27;;;;;;;13.68;8.43;;;7.70;99.90;;;;;;4974265;28;20113;-75
2022/11/29 13:40:30;;;;;;;12.95;8.32;;;7.60;99.90;;;;;;4951939;28;20038;-75
2022/11/29 13:43:19;;;;;;;11.98;8.70;;;7.70;99.90;;;;;;4954055;28;20492;-75
2022/11/29 13:46:15;;;;;;;12.20;8.30;;;7.70;99.90;;;;;;4952482;28;20047;-76
2022/11/29 13:48:53;;;;;;;11.07;7.75;;;7.60;99.90;;;;;;4949181;28;20126;-75
2022/11/29 13:51:23;;;;;;;12.70;8.52;;;7.60;99.90;;;;;;4954948;28;20543;-76
2022/11/29 13:53:49;;;;;;;15.52;9.80;;;7.60;99.90;;;;;;4953659;28;20102;-76
2022/11/29 13:56:34;;;;;;;16.50;9.50;;;7.70;99.90;;;;;;4955193;28;20027;-76
2022/11/29 13:59:07;;;;;;;16.77;9.13;;;7.60;99.90;;;;;;4961592;28;20062;-76
2022/11/29 14:01:52;;;;;;;15.68;8.75;;;7.60;99.90;;;;;;4959278;28;20023;-77
2022/11/29 14:04:20;;;;;;;15.13;9.25;;;7.60;99.90;;;;;;4954668;28;20024;-78
2022/11/29 14:06:47;;;;;;;12.75;8.35;;;7.60;99.90;;;;;;4958415;28;20042;-78
2022/11/29 14:09:12;;;;;;;13.10;8.60;;;7.60;99.90;;;;;;4955599;28;20031;-76